Time;durP1;ratioP1;P1;durP2;ratioP2;P2;SDS_P1;SDS_P2;PMS_P1;PMS_P2;Temp;Humidity;BMP_temperature;BMP_pressure;BME280_temperature;BME280_humidity;BME280_pressure;Samples;Min_cycle;Max_cycle;Signal;HPM_P1;HPM_P2
2022/01/24 00:02:20;;;;;;;;;47.75;42.00;;;;;4.76;66.29;103092.63;5112831;27;49858;-65
2022/01/24 00:04:48;;;;;;;;;60.50;48.25;;;;;4.74;66.55;103084.72;5113237;27;49586;-68
2022/01/24 00:07:17;;;;;;;;;52.50;43.75;;;;;4.63;66.72;103059.50;5107754;27;51532;-65
2022/01/24 00:09:42;;;;;;;;;53.00;44.50;;;;;4.67;66.44;103074.59;5113123;27;50075;-67
2022/01/24 00:12:17;;;;;;;;;46.25;40.00;;;;;4.66;66.74;103080.56;5112875;27;49680;-63
2022/01/24 00:14:59;;;;;;;;;60.25;41.25;;;;;4.61;67.14;103071.47;5112753;27;49934;-64
2022/01/24 00:28:12;;;;;;;;;47.50;42.00;;;;;4.28;67.89;103028.94;5132328;27;50515;-64
2022/01/24 00:30:39;;;;;;;;;48.25;40.25;;;;;4.51;67.68;103061.09;5131973;27;49875;-65
2022/01/24 00:33:04;;;;;;;;;50.25;43.00;;;;;4.53;67.37;103070.84;5132407;27;49907;-65
2022/01/24 00:35:30;;;;;;;;;45.50;40.75;;;;;4.36;67.08;103052.97;5132636;27;49856;-64
2022/01/24 00:37:59;;;;;;;;;43.00;39.25;;;;;4.42;67.29;103056.06;5132183;27;50788;-64
2022/01/24 00:40:27;;;;;;;;;49.25;43.25;;;;;4.40;67.47;103043.72;5131885;27;49765;-65
2022/01/24 00:42:57;;;;;;;;;49.75;41.00;;;;;4.32;67.06;103030.06;5132405;27;49930;-64
2022/01/24 00:55:51;;;;;;;;;51.50;44.00;;;;;4.37;67.15;103036.56;5132148;27;49779;-64
2022/01/24 00:58:16;;;;;;;;;51.00;41.00;;;;;4.46;67.36;103049.44;5131718;27;49631;-64
2022/01/24 01:00:41;;;;;;;;;49.25;43.75;;;;;4.48;66.89;103051.38;5131992;27;49779;-65
2022/01/24 01:03:07;;;;;;;;;58.00;43.75;;;;;4.44;67.22;103050.97;5131891;27;49746;-65
2022/01/24 01:18:55;;;;;;;;;45.25;40.00;;;;;4.25;67.30;103043.38;5131728;27;50529;-65
2022/01/24 01:21:21;;;;;;;;;41.75;40.25;;;;;4.25;67.24;103053.78;5131495;27;49950;-65
2022/01/24 01:23:53;;;;;;;;;45.50;42.25;;;;;4.18;68.11;103038.44;5131782;27;49987;-64
2022/01/24 01:28:52;;;;;;;;;40.75;39.75;;;;;4.22;67.87;103062.22;5131184;27;49656;-64
2022/01/24 01:31:35;;;;;;;;;47.00;35.25;;;;;4.09;67.68;103025.59;5131685;27;50220;-65
2022/01/24 01:58:01;;;;;;;;;48.00;38.25;;;;;3.97;68.22;103034.97;5117751;27;49763;-64
2022/01/24 02:00:26;;;;;;;;;44.25;40.00;;;;;3.95;68.10;103046.91;5105949;27;51185;-65
2022/01/24 02:02:51;;;;;;;;;52.75;43.25;;;;;3.98;68.01;103048.09;5125060;27;49742;-64
2022/01/24 02:05:17;;;;;;;;;51.75;41.75;;;;;3.92;68.47;103034.56;5096658;27;49734;-63
2022/01/24 02:07:51;;;;;;;;;47.75;38.75;;;;;4.01;68.61;103052.63;5134502;27;49824;-64
2022/01/24 02:10:18;;;;;;;;;48.75;41.75;;;;;3.73;68.85;103008.75;5114462;27;49897;-63
2022/01/24 02:12:44;;;;;;;;;47.25;37.75;;;;;3.93;68.45;103043.28;5128015;27;49721;-63
2022/01/24 02:15:12;;;;;;;;;35.75;33.50;;;;;3.98;68.54;103055.88;5134526;27;49631;-63
2022/01/24 02:23:14;;;;;;;;;52.25;43.25;;;;;3.79;68.64;103013.56;5134518;27;49911;-65
2022/01/24 02:25:37;;;;;;;;;41.25;39.50;;;;;3.82;68.33;103015.50;5134257;27;49614;-65
2022/01/24 02:28:04;;;;;;;;;42.75;38.25;;;;;3.82;68.48;103032.00;5134515;27;49924;-65
2022/01/24 02:30:54;;;;;;;;;42.00;37.75;;;;;3.77;68.92;103015.13;5115274;27;51316;-65
2022/01/24 02:33:20;;;;;;;;;41.50;37.25;;;;;3.77;68.39;103015.13;5134422;27;49838;-64
2022/01/24 02:35:46;;;;;;;;;45.50;40.50;;;;;3.79;68.70;103017.84;5134790;27;50039;-66
2022/01/24 02:40:43;;;;;;;;;49.25;40.50;;;;;3.65;69.11;102998.47;5113931;27;50240;-65
2022/01/24 02:48:23;;;;;;;;;37.50;34.50;;;;;3.78;68.41;103011.75;5129594;27;49852;-65
2022/01/24 02:48:47;;;;;;;;;44.25;37.25;;;;;3.73;68.47;103002.63;5134048;27;50140;-66
2022/01/24 02:51:45;;;;;;;;;41.25;39.25;;;;;3.76;68.27;103015.88;5133915;27;50961;-65
2022/01/24 02:54:31;;;;;;;;;48.25;38.00;;;;;3.81;68.16;103024.97;5133663;27;49903;-65
2022/01/24 02:56:57;;;;;;;;;43.75;36.75;;;;;3.82;68.87;103019.00;5134003;27;50045;-65
2022/01/24 02:59:23;;;;;;;;;40.75;37.50;;;;;3.73;68.79;103007.84;5133949;27;49762;-65
2022/01/24 03:01:48;;;;;;;;;43.75;38.50;;;;;3.76;68.48;103013.28;5097011;27;51955;-64
2022/01/24 03:04:14;;;;;;;;;34.00;33.50;;;;;3.81;68.47;103017.19;5131818;27;50031;-64
2022/01/24 03:06:39;;;;;;;;;44.50;37.25;;;;;3.66;69.29;103005.50;5133806;27;49604;-66
2022/01/24 03:09:06;;;;;;;;;50.00;35.75;;;;;3.72;68.75;103017.31;5133980;27;49754;-65
2022/01/24 03:14:21;;;;;;;;;47.50;39.75;;;;;3.73;68.21;103013.03;5132923;27;49736;-63
2022/01/24 03:16:47;;;;;;;;;45.00;37.50;;;;;3.75;68.96;103011.47;5133264;27;49948;-64
2022/01/24 03:19:14;;;;;;;;;42.00;34.75;;;;;3.76;68.62;103015.88;5133886;27;49867;-64
2022/01/24 03:21:42;;;;;;;;;48.75;43.00;;;;;3.47;68.84;102960.56;5133324;27;49942;-63
2022/01/24 03:24:07;;;;;;;;;48.25;40.50;;;;;3.62;68.02;102993.03;5133622;27;49732;-64
2022/01/24 03:26:33;;;;;;;;;31.75;27.50;;;;;3.64;68.20;102996.66;5133580;27;50011;-63
2022/01/24 03:28:58;;;;;;;;;42.25;34.00;;;;;3.66;68.14;102996.00;5133245;27;50047;-63
2022/01/24 03:31:23;;;;;;;;;33.50;29.00;;;;;3.57;68.43;102979.69;5133216;27;50609;-64
2022/01/24 03:33:48;;;;;;;;;44.00;39.75;;;;;3.54;68.39;102981.09;5133431;27;49723;-64
2022/01/24 03:36:14;;;;;;;;;40.75;34.75;;;;;3.57;68.70;103000.47;5133213;27;49785;-64
2022/01/24 03:38:39;;;;;;;;;37.50;34.75;;;;;3.55;68.36;102988.09;5133475;27;49266;-64
2022/01/24 03:41:04;;;;;;;;;49.25;41.25;;;;;3.44;68.86;102969.03;5132952;27;49801;-64
2022/01/24 03:43:30;;;;;;;;;41.25;40.50;;;;;3.50;68.50;102979.94;5132650;27;49999;-63
2022/01/24 03:46:12;;;;;;;;;32.50;29.25;;;;;3.59;68.51;102995.38;5133306;27;49847;-63
2022/01/24 03:51:09;;;;;;;;;39.75;35.75;;;;;3.55;68.81;102994.19;5132885;27;50382;-64
2022/01/24 03:53:34;;;;;;;;;38.25;35.25;;;;;3.21;68.53;102933.34;5132939;27;49716;-63
2022/01/24 03:56:00;;;;;;;;;46.00;39.50;;;;;3.49;68.44;102988.50;5132860;27;49866;-63
2022/01/24 03:58:25;;;;;;;;;42.25;35.75;;;;;3.38;69.07;102974.63;5132797;27;50022;-65
2022/01/24 04:00:51;;;;;;;;;50.75;44.00;;;;;3.40;68.46;102973.06;5132651;27;49595;-65
2022/01/24 04:03:16;;;;;;;;;45.50;41.25;;;;;3.49;68.87;102991.09;5100829;27;49825;-64
2022/01/24 04:05:42;;;;;;;;;41.25;38.25;;;;;3.33;68.98;102949.03;5132946;27;49698;-64
2022/01/24 04:08:08;;;;;;;;;43.50;38.25;;;;;3.35;68.57;102966.53;5133220;27;49590;-64
2022/01/24 04:10:41;;;;;;;;;47.25;43.50;;;;;3.38;68.90;102971.13;5132572;27;50738;-64
2022/01/24 04:13:20;;;;;;;;;37.50;33.50;;;;;3.26;68.99;102951.88;5132415;27;49685;-65
2022/01/24 04:15:58;;;;;;;;;49.00;40.75;;;;;3.28;68.86;102951.25;5132911;27;50492;-65
2022/01/24 04:23:36;;;;;;;;;48.25;41.50;;;;;3.23;69.58;102949.94;5112523;27;49599;-64
2022/01/24 04:26:02;;;;;;;;;44.75;39.00;;;;;3.34;69.92;102969.94;5120169;27;49608;-64
2022/01/24 04:28:27;;;;;;;;;48.75;39.50;;;;;3.26;69.19;102945.00;5132863;27;49757;-64
2022/01/24 04:30:53;;;;;;;;;45.50;39.50;;;;;3.23;69.42;102946.44;5125684;27;51220;-64
2022/01/24 04:33:18;;;;;;;;;37.75;36.25;;;;;3.30;69.74;102959.16;5113729;27;49744;-64
2022/01/24 04:35:43;;;;;;;;;45.75;40.75;;;;;3.21;69.92;102948.00;5126078;27;49786;-64
2022/01/24 04:38:09;;;;;;;;;33.50;32.75;;;;;3.36;69.19;102980.44;5112667;27;49724;-64
2022/01/24 04:40:34;;;;;;;;;45.75;41.00;;;;;3.22;69.13;102955.00;5112254;27;49654;-64
2022/01/24 04:43:20;;;;;;;;;40.00;37.25;;;;;3.30;69.16;102987.72;5117662;27;49696;-64
2022/01/24 04:54:14;;;;;;;;;48.00;39.50;;;;;3.29;69.28;102971.25;5119037;27;49768;-64
2022/01/24 04:56:40;;;;;;;;;43.50;35.75;;;;;3.27;69.55;102967.56;5111677;27;50478;-65
2022/01/24 04:59:06;;;;;;;;;50.00;37.50;;;;;3.35;70.01;102981.22;5112171;27;49756;-65
2022/01/24 05:01:31;;;;;;;;;51.75;41.50;;;;;3.01;68.72;102912.56;5111051;27;50416;-63
2022/01/24 05:03:57;;;;;;;;;47.00;38.25;;;;;3.21;68.96;102959.28;5112013;27;49822;-63
2022/01/24 05:06:23;;;;;;;;;61.50;43.50;;;;;3.33;68.91;102981.09;5112134;27;49841;-65
2022/01/24 05:08:48;;;;;;;;;48.50;38.75;;;;;3.29;69.13;102970.34;5110303;27;50138;-64
2022/01/24 05:11:19;;;;;;;;;54.75;41.25;;;;;3.29;69.24;102972.94;5111740;27;50543;-64
2022/01/24 05:24:36;;;;;;;;;49.75;43.25;;;;;3.19;69.03;102972.94;5111919;27;49860;-65
2022/01/24 05:27:01;;;;;;;;;48.50;37.50;;;;;3.20;69.46;102983.44;5111763;27;49853;-65
2022/01/24 05:29:27;;;;;;;;;44.25;40.00;;;;;3.19;69.04;102971.22;5111706;27;49792;-65
2022/01/24 05:31:54;;;;;;;;;43.50;39.25;;;;;3.03;69.49;102935.25;5111503;27;49709;-65
2022/01/24 05:34:19;;;;;;;;;53.00;39.50;;;;;3.15;68.84;102964.84;5110772;27;50066;-65
2022/01/24 05:36:44;;;;;;;;;45.50;40.75;;;;;3.17;69.95;102978.88;5104428;27;50386;-65
2022/01/24 05:39:11;;;;;;;;;40.50;39.75;;;;;3.04;69.74;102957.84;5114354;27;49792;-65
2022/01/24 05:41:37;;;;;;;;;48.00;40.50;;;;;3.10;69.44;102963.56;5115114;27;49570;-65
2022/01/24 05:44:03;;;;;;;;;54.75;43.25;;;;;3.20;69.20;102988.63;5109894;27;49825;-64
2022/01/24 05:46:28;;;;;;;;;41.75;40.25;;;;;3.08;69.85;102962.50;5115026;27;49920;-65
2022/01/24 05:48:54;;;;;;;;;51.50;42.25;;;;;3.05;69.29;102954.47;5115281;27;49793;-65
2022/01/24 05:51:20;;;;;;;;;55.00;45.50;;;;;2.95;69.96;102932.78;5116026;27;51456;-64
2022/01/24 05:53:46;;;;;;;;;49.75;41.25;;;;;3.19;69.72;102972.94;5115445;27;49892;-64
2022/01/24 05:56:12;;;;;;;;;53.25;42.00;;;;;3.03;69.67;102945.66;5115018;27;49883;-65
2022/01/24 05:58:37;;;;;;;;;52.00;41.25;;;;;3.03;69.40;102956.03;5114895;27;49608;-65
2022/01/24 06:01:03;;;;;;;;;42.75;35.25;;;;;3.06;69.34;102961.47;5118228;27;50790;-65
2022/01/24 06:03:28;;;;;;;;;47.75;41.00;;;;;3.08;70.01;102953.81;5116625;27;49820;-66
2022/01/24 06:05:54;;;;;;;;;44.25;42.00;;;;;3.05;69.27;102948.38;5121061;27;50430;-64
2022/01/24 06:08:19;;;;;;;;;45.50;40.25;;;;;3.10;69.37;102970.44;5119711;27;49985;-66
2022/01/24 06:10:46;;;;;;;;;60.25;42.50;;;;;2.88;70.13;102924.47;5117999;27;49760;-65
2022/01/24 06:13:12;;;;;;;;;61.25;47.50;;;;;3.08;69.30;102966.78;5114842;27;49926;-64
2022/01/24 06:15:37;;;;;;;;;43.75;40.75;;;;;3.00;69.89;102958.38;5118130;27;49638;-64
2022/01/24 06:18:03;;;;;;;;;44.00;41.25;;;;;3.08;69.23;102970.28;5115051;27;49830;-69
2022/01/24 06:20:28;;;;;;;;;57.25;42.00;;;;;3.12;69.62;102985.38;5114421;27;49766;-65
2022/01/24 06:22:53;;;;;;;;;56.25;46.25;;;;;3.10;69.97;102986.03;5123368;27;50079;-66
2022/01/24 06:25:24;;;;;;;;;51.50;42.00;;;;;3.08;69.74;102988.44;5134754;27;49715;-69
2022/01/24 06:27:50;;;;;;;;;40.50;33.75;;;;;3.05;69.49;102982.09;5114574;27;49703;-65
2022/01/24 06:30:15;;;;;;;;;47.00;37.50;;;;;2.91;69.89;102960.16;5114279;27;49745;-64
2022/01/24 06:32:41;;;;;;;;;48.00;43.50;;;;;2.92;69.29;102972.34;5114646;27;49832;-64
2022/01/24 06:35:11;;;;;;;;;58.50;46.25;;;;;2.85;69.78;102959.63;5117306;27;50208;-64
2022/01/24 06:37:37;;;;;;;;;59.75;45.00;;;;;3.03;70.00;102988.84;5121618;27;49630;-65
2022/01/24 06:40:05;;;;;;;;;53.25;43.50;;;;;2.97;69.25;102989.22;5116186;27;50523;-63
2022/01/24 06:42:30;;;;;;;;;46.00;40.25;;;;;2.77;69.59;102958.94;5127552;27;49678;-64
2022/01/24 06:44:56;;;;;;;;;59.75;49.25;;;;;2.77;70.00;102955.44;5114659;27;49877;-65
2022/01/24 06:47:22;;;;;;;;;53.50;42.75;;;;;2.99;69.24;102997.13;5123109;27;50097;-64
2022/01/24 06:49:48;;;;;;;;;55.50;44.75;;;;;2.80;69.77;102955.75;5117484;27;49740;-64
2022/01/24 06:52:14;;;;;;;;;53.50;42.50;;;;;2.91;69.62;102977.41;5120779;27;49737;-70
2022/01/24 06:54:41;;;;;;;;;55.50;44.75;;;;;2.77;69.50;102958.03;5107446;27;49721;-69
2022/01/24 06:57:09;;;;;;;;;48.50;42.50;;;;;2.97;69.96;102990.91;5115775;27;50139;-68
2022/01/24 06:59:35;;;;;;;;;57.25;46.00;;;;;2.78;69.59;102960.75;5114760;27;50849;-68
2022/01/24 07:02:01;;;;;;;;;52.00;41.00;;;;;2.98;70.16;102995.31;5118491;27;49894;-69
2022/01/24 07:04:26;;;;;;;;;52.75;40.50;;;;;2.91;70.40;102980.91;5118417;27;49911;-70
2022/01/24 07:06:52;;;;;;;;;51.75;43.25;;;;;2.87;69.85;102987.50;5116827;27;49744;-72
2022/01/24 07:09:17;;;;;;;;;47.25;40.00;;;;;2.88;69.75;102988.41;5123045;27;50490;-72
2022/01/24 07:11:42;;;;;;;;;49.75;39.50;;;;;2.46;69.93;102921.66;5125480;27;49849;-69
2022/01/24 07:14:12;;;;;;;;;59.50;47.25;;;;;2.96;70.07;103005.56;5135331;27;49852;-68
2022/01/24 07:19:16;;;;;;;;;49.50;42.25;;;;;2.95;69.92;103002.84;5145524;27;50017;-70
2022/01/24 07:21:41;;;;;;;;;53.50;43.00;;;;;2.77;70.57;102979.69;5137181;27;49924;-70
2022/01/24 07:24:07;;;;;;;;;50.50;46.00;;;;;2.70;70.04;102969.59;5133922;27;50743;-70
2022/01/24 07:26:32;;;;;;;;;46.00;37.25;;;;;2.92;69.52;103006.09;5134300;27;49777;-65
2022/01/24 07:28:57;;;;;;;;;51.50;44.50;;;;;2.84;69.73;102984.66;5118622;27;50440;-65
2022/01/24 07:31:23;;;;;;;;;40.25;33.75;;;;;2.80;70.37;102982.59;5131089;27;49860;-64
2022/01/24 07:33:49;;;;;;;;;50.00;39.50;;;;;2.64;69.67;102953.47;5133178;27;49779;-63
2022/01/24 07:36:15;;;;;;;;;44.75;39.75;;;;;2.82;70.31;102983.63;5116020;27;49832;-62
2022/01/24 07:38:40;;;;;;;;;57.75;46.00;;;;;2.93;69.72;103004.41;5113127;27;50606;-67
2022/01/24 07:41:06;;;;;;;;;50.50;45.00;;;;;2.87;69.95;102990.09;5113502;27;49695;-66
2022/01/24 07:43:32;;;;;;;;;58.75;45.25;;;;;2.96;69.64;103007.25;5117106;27;49943;-66
2022/01/24 07:45:58;;;;;;;;;43.00;38.00;;;;;2.87;69.95;102990.09;5113701;27;49971;-67
2022/01/24 07:48:23;;;;;;;;;45.75;41.00;;;;;2.96;69.72;103004.66;5113335;27;50958;-67
2022/01/24 07:50:51;;;;;;;;;41.50;37.75;;;;;2.96;70.44;103005.56;5110556;27;49765;-69
2022/01/24 07:53:17;;;;;;;;;60.50;47.75;;;;;2.86;69.84;103005.53;5115319;27;49588;-69
2022/01/24 07:55:43;;;;;;;;;43.25;40.00;;;;;2.94;70.27;103008.81;5111813;27;49945;-68
2022/01/24 07:58:09;;;;;;;;;47.25;42.75;;;;;2.90;69.96;103007.66;5093133;27;52086;-68
2022/01/24 08:00:35;;;;;;;;;61.75;45.00;;;;;2.79;70.09;102992.78;5104778;27;49663;-68
2022/01/24 08:03:00;;;;;;;;;58.50;47.75;;;;;2.79;69.98;103003.16;5112672;27;49681;-67
2022/01/24 08:05:27;;;;;;;;;52.75;41.75;;;;;2.83;70.44;103007.88;5112817;27;49722;-68
2022/01/24 08:07:53;;;;;;;;;51.75;43.00;;;;;2.97;70.22;103016.84;5112328;27;50498;-69
2022/01/24 08:10:18;;;;;;;;;51.25;45.50;;;;;2.91;70.59;103011.16;5114514;27;49793;-69
2022/01/24 08:12:44;;;;;;;;;55.00;41.75;;;;;2.75;69.76;102970.88;5112977;27;49787;-72
2022/01/24 08:15:14;;;;;;;;;50.75;43.00;;;;;2.88;69.63;102988.41;5113785;27;49809;-69
2022/01/24 08:17:40;;;;;;;;;51.50;44.25;;;;;2.87;70.07;102991.78;5094453;27;51896;-70
2022/01/24 08:20:06;;;;;;;;;58.75;46.25;;;;;2.96;69.30;102990.00;5112969;27;49789;-68
2022/01/24 08:22:31;;;;;;;;;53.25;44.25;;;;;2.97;69.18;103007.38;5113162;27;49899;-69
2022/01/24 08:24:57;;;;;;;;;52.00;40.00;;;;;2.96;69.27;103009.84;5113989;27;49591;-69
2022/01/24 08:27:25;;;;;;;;;47.75;39.00;;;;;3.00;69.28;103014.53;5112378;27;51882;-69
2022/01/24 08:29:51;;;;;;;;;38.75;38.25;;;;;3.12;70.15;103036.34;5113873;27;49778;-69
2022/01/24 08:32:17;;;;;;;;;59.25;46.75;;;;;3.06;69.63;103015.06;5112759;27;49931;-69
2022/01/24 08:34:42;;;;;;;;;58.75;48.25;;;;;3.03;69.24;103015.72;5112650;27;49635;-69
2022/01/24 08:37:07;;;;;;;;;48.25;44.25;;;;;3.01;69.54;103017.25;5112288;27;50896;-69
2022/01/24 08:39:33;;;;;;;;;55.00;46.75;;;;;3.07;69.28;103016.88;5112431;27;49621;-68
2022/01/24 08:42:44;;;;;;;;;58.50;45.75;;;;;3.08;69.83;103013.50;5112314;27;49905;-68
2022/01/24 08:47:36;;;;;;;;;62.25;46.25;;;;;3.17;69.41;103032.47;5112106;27;49801;-68
2022/01/24 08:50:04;;;;;;;;;59.75;49.00;;;;;3.19;69.76;103019.66;5093617;27;49888;-69
2022/01/24 08:52:29;;;;;;;;;66.25;52.50;;;;;3.22;68.98;103023.41;5112299;27;49805;-69
2022/01/24 08:54:55;;;;;;;;;62.75;48.00;;;;;3.19;69.65;103014.44;5112601;27;49711;-69
2022/01/24 08:57:25;;;;;;;;;55.50;45.00;;;;;3.36;69.18;103033.28;5111874;27;50459;-68
2022/01/24 08:59:52;;;;;;;;;60.00;48.50;;;;;3.25;69.16;103020.16;5111824;27;49847;-69
2022/01/24 09:02:17;;;;;;;;;62.00;45.75;;;;;3.26;69.32;103022.88;5112192;27;49668;-68
2022/01/24 09:04:43;;;;;;;;;63.50;51.50;;;;;3.04;69.06;102988.97;5092919;27;50063;-69
2022/01/24 09:07:09;;;;;;;;;59.50;49.25;;;;;3.34;69.37;103036.53;5111867;27;50565;-68
2022/01/24 09:09:36;;;;;;;;;48.75;42.25;;;;;3.35;69.81;103041.84;5112031;27;49733;-69
2022/01/24 09:12:05;;;;;;;;;58.50;45.00;;;;;3.38;69.01;103029.16;5112166;27;49896;-68
2022/01/24 09:14:30;;;;;;;;;56.25;48.00;;;;;3.28;68.91;103010.97;5111068;27;49650;-68
2022/01/24 09:16:56;;;;;;;;;47.75;42.75;;;;;3.56;68.78;103049.66;5111780;27;50187;-68
2022/01/24 09:19:21;;;;;;;;;64.75;45.25;;;;;3.60;68.84;103052.66;5112475;27;49788;-68
2022/01/24 09:21:47;;;;;;;;;63.25;47.50;;;;;3.54;69.04;103010.56;5111755;27;49814;-68
2022/01/24 09:24:12;;;;;;;;;57.00;46.50;;;;;3.62;68.66;103034.59;5112222;27;49649;-68
2022/01/24 09:26:38;;;;;;;;;54.50;45.75;;;;;3.50;68.09;102999.81;5111229;27;49928;-69
2022/01/24 09:29:03;;;;;;;;;59.50;46.25;;;;;3.66;68.15;103019.38;5111384;27;49763;-69
2022/01/24 09:31:29;;;;;;;;;59.25;49.25;;;;;3.73;68.54;103028.63;5111753;27;49842;-69
2022/01/24 09:33:55;;;;;;;;;64.50;50.25;;;;;3.70;68.53;103016.28;5111804;27;49764;-68
2022/01/24 09:36:20;;;;;;;;;59.25;45.25;;;;;3.82;67.82;103029.41;5112153;27;50213;-68
2022/01/24 09:38:46;;;;;;;;;51.50;43.75;;;;;3.81;68.29;103027.56;5111600;27;49119;-68
2022/01/24 09:41:15;;;;;;;;;63.50;51.00;;;;;3.33;68.02;102926.56;5109625;27;49713;-68
2022/01/24 09:43:41;;;;;;;;;59.50;48.75;;;;;4.09;67.96;103051.59;5114207;27;49607;-68
2022/01/24 09:46:08;;;;;;;;;65.50;47.75;;;;;3.80;67.60;103006.66;5109855;27;52901;-68
2022/01/24 09:48:33;;;;;;;;;57.00;46.00;;;;;4.01;67.42;103024.03;5111899;27;49896;-68
2022/01/24 09:50:59;;;;;;;;;56.25;45.25;;;;;3.98;67.64;103016.91;5111560;27;49819;-68
2022/01/24 09:53:26;;;;;;;;;58.00;46.50;;;;;4.13;66.86;103057.94;5112206;27;49970;-68
2022/01/24 09:55:53;;;;;;;;;56.75;45.00;;;;;3.96;67.45;103028.88;5111021;27;49662;-68
2022/01/24 09:58:20;;;;;;;;;67.25;49.00;;;;;3.83;67.56;102996.53;5111102;27;49709;-68
2022/01/24 10:00:46;;;;;;;;;64.00;50.25;;;;;4.24;67.26;103059.72;5105923;27;49794;-68
2022/01/24 10:03:13;;;;;;;;;56.75;46.25;;;;;4.16;67.32;103016.63;5111936;27;49818;-68
2022/01/24 10:05:40;;;;;;;;;56.75;48.75;;;;;4.16;66.93;103004.53;5111146;27;49837;-68
2022/01/24 10:08:08;;;;;;;;;54.50;46.75;;;;;4.23;66.60;103003.31;5110430;27;49768;-68
2022/01/24 10:10:39;;;;;;;;;55.00;46.50;;;;;4.45;66.80;103035.53;5106096;27;49668;-68
2022/01/24 10:16:27;;;;;;;;;60.75;49.25;;;;;4.72;66.38;103046.31;5110883;27;50291;-64
2022/01/24 10:19:19;;;;;;;;;61.00;48.25;;;;;4.41;66.13;102984.03;5111347;27;50040;-65
2022/01/24 10:22:20;;;;;;;;;50.75;43.50;;;;;4.59;66.09;103010.59;5110935;27;49900;-64
2022/01/24 10:24:53;;;;;;;;;54.75;43.75;;;;;4.59;66.22;103011.53;5069079;27;49837;-65
2022/01/24 10:27:28;;;;;;;;;61.00;50.00;;;;;4.88;65.47;103046.78;5134709;27;51036;-64
2022/01/24 10:29:59;;;;;;;;;64.25;48.50;;;;;4.98;65.87;103044.13;5096000;27;49699;-64
2022/01/24 10:32:41;;;;;;;;;49.50;41.75;;;;;5.06;65.03;103049.94;5114708;27;49853;-65
2022/01/24 10:35:31;;;;;;;;;65.50;50.25;;;;;5.12;65.31;103038.34;5114715;27;49695;-65
2022/01/24 10:41:06;;;;;;;;;54.50;44.75;;;;;5.24;65.08;103040.97;5114442;27;49902;-66
2022/01/24 10:43:33;;;;;;;;;46.50;42.75;;;;;5.17;65.46;103023.97;5095481;27;49860;-66
2022/01/24 10:45:58;;;;;;;;;57.50;46.50;;;;;5.08;64.12;102998.91;5114598;27;49588;-66
2022/01/24 10:48:32;;;;;;;;;57.00;46.00;;;;;5.11;64.91;102994.81;5114295;27;49660;-66
2022/01/24 10:51:15;;;;;;;;;57.25;47.75;;;;;5.40;64.79;103022.22;5114299;27;49724;-66
2022/01/24 10:53:43;;;;;;;;;60.00;44.25;;;;;5.38;64.42;103008.19;5114167;27;49632;-65
2022/01/24 10:56:29;;;;;;;;;55.50;43.25;;;;;5.39;64.48;103010.00;5114044;27;49609;-66
2022/01/24 10:59:21;;;;;;;;;57.25;44.25;;;;;5.41;64.03;103011.06;5113875;27;50793;-66
2022/01/24 11:01:57;;;;;;;;;48.25;40.75;;;;;5.22;64.21;102967.06;5113980;27;50512;-66
2022/01/24 11:04:24;;;;;;;;;54.25;46.50;;;;;5.49;64.18;103009.91;5114217;27;49789;-66
2022/01/24 11:06:58;;;;;;;;;49.25;44.25;;;;;5.57;64.99;103005.31;5114047;27;50447;-65
2022/01/24 11:09:32;;;;;;;;;50.00;40.50;;;;;5.32;63.23;102947.84;5127397;27;50800;-65
2022/01/24 11:12:09;;;;;;;;;53.00;43.75;;;;;5.64;64.66;102994.56;5133819;27;50012;-66
2022/01/24 11:14:36;;;;;;;;;59.00;47.50;;;;;5.41;63.42;102952.03;5133653;27;49846;-66
2022/01/24 11:17:03;;;;;;;;;48.75;42.25;;;;;5.63;63.31;102993.66;5133829;27;49685;-65
2022/01/24 11:19:36;;;;;;;;;48.25;41.00;;;;;5.65;63.80;102994.69;5133228;27;51730;-66
2022/01/24 11:22:05;;;;;;;;;48.75;42.75;;;;;5.42;63.91;102943.44;5133715;27;49692;-65
2022/01/24 11:27:06;;;;;;;;;45.75;42.00;;;;;5.52;63.09;102960.69;5133768;27;49625;-66
2022/01/24 11:29:32;;;;;;;;;41.75;37.75;;;;;5.35;62.64;102940.25;5132863;27;50826;-66
2022/01/24 11:32:19;;;;;;;;;60.00;43.50;;;;;5.77;63.92;102991.19;5133304;27;49693;-67
2022/01/24 11:34:49;;;;;;;;;53.50;42.25;;;;;5.82;62.36;102989.84;5133656;27;49617;-66
2022/01/24 11:37:38;;;;;;;;;48.75;41.25;;;;;5.50;62.60;102932.66;5111289;27;49975;-66
2022/01/24 11:40:06;;;;;;;;;50.00;41.75;;;;;5.82;62.68;102969.91;5113017;27;50752;-65
2022/01/24 11:42:35;;;;;;;;;40.25;37.00;;;;;5.90;62.47;102975.69;5113038;27;49699;-65
2022/01/24 11:45:05;;;;;;;;;56.75;42.25;;;;;5.96;63.22;102971.84;5108309;27;49891;-66
2022/01/24 11:47:31;;;;;;;;;37.75;35.00;;;;;5.90;62.33;102942.75;5113587;27;49892;-66
2022/01/24 11:49:58;;;;;;;;;47.75;39.25;;;;;6.16;61.79;102968.13;5093822;27;52290;-66
2022/01/24 11:52:34;;;;;;;;;44.00;39.75;;;;;5.80;61.72;102910.63;5113410;27;50008;-66
2022/01/24 11:55:20;;;;;;;;;40.00;35.00;;;;;6.14;61.65;102953.16;5113421;27;49771;-66
2022/01/24 11:57:50;;;;;;;;;46.50;41.00;;;;;6.19;61.62;102964.84;5126531;27;49843;-66
2022/01/24 12:00:22;;;;;;;;;43.25;37.50;;;;;6.28;61.57;102966.44;5126911;27;50760;-67
2022/01/24 12:02:59;;;;;;;;;53.50;43.75;;;;;6.14;60.89;102934.91;5126946;27;49973;-66
2022/01/24 12:05:45;;;;;;;;;59.00;45.75;;;;;6.33;61.58;102956.31;5133138;27;49701;-66
2022/01/24 12:08:27;;;;;;;;;47.75;39.25;;;;;6.13;61.74;102901.81;5096515;27;49794;-65
2022/01/24 12:10:54;;;;;;;;;59.00;43.75;;;;;6.32;60.63;102937.16;5112740;27;49854;-66
2022/01/24 12:13:27;;;;;;;;;52.75;45.25;;;;;6.21;60.88;102917.22;5119456;27;49831;-66
2022/01/24 12:15:58;;;;;;;;;55.75;42.75;;;;;6.38;61.44;102938.41;5118914;27;49583;-66
2022/01/24 12:18:28;;;;;;;;;45.25;41.25;;;;;6.50;60.66;102962.75;5113173;27;49664;-67
2022/01/24 12:21:07;;;;;;;;;32.75;32.75;;;;;6.47;60.25;102965.16;5112416;27;50767;-66
2022/01/24 12:23:32;;;;;;;;;48.25;40.75;;;;;6.46;60.87;102963.31;5112673;27;49755;-66
2022/01/24 12:26:06;;;;;;;;;48.00;41.00;;;;;6.11;60.81;102882.53;5094317;27;49835;-66
2022/01/24 12:28:41;;;;;;;;;42.75;37.25;;;;;6.57;60.91;102954.59;5112711;27;49708;-66
2022/01/24 12:31:23;;;;;;;;;47.75;41.00;;;;;6.42;60.65;102920.47;5112560;27;49971;-67
2022/01/24 12:33:54;;;;;;;;;47.00;40.75;;;;;6.59;59.90;102950.38;5112612;27;49654;-67
2022/01/24 12:36:47;;;;;;;;;40.25;39.00;;;;;6.65;59.98;102955.13;5111116;27;49840;-67
2022/01/24 12:39:25;;;;;;;;;44.00;39.00;;;;;6.53;61.43;102939.50;5112728;27;49986;-67
2022/01/24 12:41:58;;;;;;;;;56.50;43.00;;;;;6.70;60.84;102949.44;5112279;27;49657;-66
2022/01/24 12:47:14;;;;;;;;;45.75;38.00;;;;;6.77;60.02;102951.69;5125764;27;49683;-66
2022/01/24 12:49:41;;;;;;;;;44.25;36.75;;;;;6.65;59.68;102923.78;5132301;27;49888;-67
2022/01/24 12:52:10;;;;;;;;;34.25;30.00;;;;;6.73;60.32;102933.97;5132057;27;51022;-66
2022/01/24 12:54:40;;;;;;;;;41.00;38.00;;;;;6.71;60.01;102906.88;5132043;27;49742;-67
2022/01/24 12:57:09;;;;;;;;;49.50;39.00;;;;;6.87;59.91;102932.38;5131756;27;49672;-66
2022/01/24 12:59:36;;;;;;;;;43.75;38.75;;;;;6.93;60.30;102932.78;5132143;27;49772;-66
2022/01/24 13:02:04;;;;;;;;;44.25;39.00;;;;;7.01;59.61;102935.94;5131769;27;50596;-66
2022/01/24 13:04:35;;;;;;;;;51.75;41.50;;;;;6.88;59.37;102911.59;5132046;27;49836;-67
2022/01/24 13:07:01;;;;;;;;;46.75;40.50;;;;;6.96;59.10;102933.00;5132194;27;49888;-67
2022/01/24 13:09:27;;;;;;;;;45.50;40.50;;;;;7.00;59.25;102934.13;5132046;27;49922;-66
2022/01/24 13:12:00;;;;;;;;;51.25;42.75;;;;;7.08;59.62;102938.19;5132043;27;50009;-67
2022/01/24 13:14:43;;;;;;;;;46.00;38.50;;;;;6.88;59.41;102901.13;5097796;27;49763;-67
2022/01/24 13:25:38;;;;;;;;;48.00;41.75;;;;;7.10;60.04;102918.28;5131824;27;49672;-67
2022/01/24 13:28:23;;;;;;;;;49.75;43.25;;;;;6.94;60.12;102873.63;5131030;27;49534;-66
2022/01/24 13:31:04;;;;;;;;;40.25;36.50;;;;;7.22;59.80;102911.28;5132346;27;49996;-67
2022/01/24 13:33:35;;;;;;;;;40.25;38.25;;;;;7.12;59.46;102874.88;5131668;27;50793;-66